Time;durP1;ratioP1;P1;durP2;ratioP2;P2;SDS_P1;SDS_P2;PMS_P1;PMS_P2;Temp;Humidity;BMP_temperature;BMP_pressure;BME280_temperature;BME280_humidity;BME280_pressure;Samples;Min_cycle;Max_cycle;Signal;HPM_P1;HPM_P2
2023/01/12 00:02:12;;;;;;;;;;;;;;;9.44;100.00;100746.31;2616055;36;20038;-57
2023/01/12 00:04:41;;;;;;;13.82;2.28;;;;;;;9.56;100.00;100759.69;2614729;36;19954;-58
2023/01/12 00:07:11;;;;;;;13.60;2.85;;;;;;;9.53;100.00;100743.81;2615350;36;20035;-58
2023/01/12 00:09:39;;;;;;;15.00;3.00;;;;;;;9.53;100.00;100749.19;2615564;36;20043;-58
2023/01/12 00:12:11;;;;;;;18.75;3.58;;;;;;;9.44;100.00;100727.50;2615902;31;20039;-57
2023/01/12 00:14:42;;;;;;;15.60;2.75;;;;;;;9.43;100.00;100731.16;2615644;36;20045;-58
2023/01/12 00:17:10;;;;;;;15.98;3.08;;;;;;;9.47;100.00;100732.59;2614539;36;20041;-55
2023/01/12 00:19:39;;;;;;;14.63;2.63;;;;;;;9.44;100.00;100732.03;2608417;36;20042;-59
2023/01/12 00:22:10;;;;;;;15.25;2.75;;;;;;;9.42;100.00;100718.72;2608673;36;20080;-56
2023/01/12 00:24:40;;;;;;;12.30;2.58;;;;;;;9.49;100.00;100723.56;2609638;31;20037;-55
2023/01/12 00:27:10;;;;;;;12.82;2.67;;;;;;;9.47;100.00;100708.44;2609472;36;20041;-59
2023/01/12 00:29:41;;;;;;;13.15;3.15;;;;;;;9.49;100.00;100726.25;2608083;36;20526;-58
2023/01/12 00:32:14;;;;;;;13.73;3.00;;;;;;;9.61;100.00;100706.38;2608741;36;20921;-59
2023/01/12 00:34:42;;;;;;;16.48;2.38;;;;;;;9.57;100.00;100702.25;2608629;36;20066;-58
2023/01/12 00:37:11;;;;;;;13.00;2.95;;;;;;;9.63;100.00;100702.56;2606785;36;20038;-57
2023/01/12 00:39:39;;;;;;;13.15;3.00;;;;;;;9.51;100.00;100694.72;2609455;36;20526;-57
2023/01/12 00:47:32;;;;;;;17.08;3.58;;;;;;;9.55;100.00;100690.78;2608541;36;20404;-58
2023/01/12 00:50:00;;;;;;;10.55;2.45;;;;;;;9.59;100.00;100685.00;2606687;36;20034;-58
2023/01/12 00:52:29;;;;;;;14.30;3.33;;;;;;;9.56;100.00;100687.13;2609006;36;20042;-59
2023/01/12 00:54:57;;;;;;;18.20;2.42;;;;;;;9.53;100.00;100674.81;2608919;31;20038;-58
2023/01/12 00:57:26;;;;;;;12.85;2.30;;;;;;;9.53;100.00;100685.56;2609323;36;20041;-59
2023/01/12 00:59:58;;;;;;;12.43;3.20;;;;;;;9.52;100.00;100683.84;2610274;36;20031;-57
2023/01/12 01:02:27;;;;;;;16.38;2.67;;;;;;;9.45;100.00;100688.91;2608359;36;20050;-59
2023/01/12 01:04:55;;;;;;;10.43;2.25;;;;;;;9.56;100.00;100673.69;2609203;36;20038;-56
2023/01/12 01:07:27;;;;;;;11.98;3.95;;;;;;;9.58;100.00;100674.41;2607964;54;20041;-59
2023/01/12 01:09:55;;;;;;;14.70;4.13;;;;;;;9.59;100.00;100681.50;2607608;31;20042;-59
2023/01/12 01:12:24;;;;;;;15.15;3.00;;;;;;;9.66;100.00;100669.22;2608610;36;20064;-56
2023/01/12 01:14:52;;;;;;;14.97;2.97;;;;;;;9.57;100.00;100659.25;2607694;36;20110;-57
2023/01/12 01:17:23;;;;;;;20.83;3.58;;;;;;;9.66;100.00;100661.16;2607802;36;20037;-57
2023/01/12 01:19:51;;;;;;;14.70;2.50;;;;;;;9.67;100.00;100649.41;2607409;36;20057;-57
2023/01/12 01:22:20;;;;;;;19.00;3.17;;;;;;;9.65;100.00;100654.91;2607717;36;20038;-57
2023/01/12 01:24:49;;;;;;;15.07;2.65;;;;;;;9.67;100.00;100654.78;2607318;36;20054;-55
2023/01/12 01:27:17;;;;;;;;;;;;;;;9.73;100.00;100648.88;2607680;31;20034;-56
2023/01/12 01:29:46;;;;;;;20.73;3.50;;;;;;;9.76;100.00;100637.00;2607811;36;19946;-55
2023/01/12 01:32:14;;;;;;;17.33;3.33;;;;;;;9.75;100.00;100633.47;2607628;36;20035;-57
2023/01/12 01:34:45;;;;;;;19.27;3.03;;;;;;;9.80;100.00;100644.66;2606452;36;20050;-56
2023/01/12 01:37:13;;;;;;;23.92;4.15;;;;;;;9.77;100.00;100630.63;2607596;36;20030;-54
2023/01/12 01:39:41;;;;;;;22.05;4.05;;;;;;;9.69;100.00;100635.81;2608308;36;20042;-56
2023/01/12 01:42:26;;;;;;;21.80;4.43;;;;;;;9.62;100.00;100635.53;2605828;31;20030;-57
2023/01/12 01:44:56;;;;;;;18.08;3.65;;;;;;;9.55;100.00;100634.38;2608320;36;20057;-55
2023/01/12 01:47:35;;;;;;;25.40;4.35;;;;;;;9.63;100.00;100624.66;2608066;36;20070;-57
2023/01/12 01:50:13;;;;;;;16.20;3.70;;;;;;;9.57;100.00;100622.50;2607802;36;20057;-56
2023/01/12 01:52:47;;;;;;;14.50;3.80;;;;;;;9.63;100.00;100621.13;2609246;36;20037;-56
2023/01/12 01:55:20;;;;;;;10.02;3.58;;;;;;;9.57;100.00;100602.84;2606799;36;20042;-58
2023/01/12 01:57:52;;;;;;;18.30;3.90;;;;;;;9.58;100.00;100596.47;2607580;36;20041;-56
2023/01/12 02:00:21;;;;;;;19.83;3.63;;;;;;;9.57;100.00;100600.16;2607957;31;20035;-58
2023/01/12 02:02:50;;;;;;;21.10;3.63;;;;;;;9.66;100.00;100604.72;2607974;36;20466;-57
2023/01/12 02:05:25;;;;;;;14.35;3.67;;;;;;;9.64;100.00;100593.25;2610557;36;20042;-58
2023/01/12 02:07:55;;;;;;;18.08;4.90;;;;;;;9.61;100.00;100586.31;2606667;36;20023;-57
2023/01/12 02:10:23;;;;;;;16.65;3.65;;;;;;;9.59;100.00;100574.00;2607821;36;20053;-56
2023/01/12 02:18:40;;;;;;;20.08;4.00;;;;;;;9.64;100.00;100564.56;2606998;36;20113;-56
2023/01/12 02:21:43;;;;;;;16.55;3.78;;;;;;;9.62;100.00;100571.03;2607428;36;20038;-57
2023/01/12 02:24:32;;;;;;;17.58;4.47;;;;;;;9.61;100.00;100556.78;2607538;36;20569;-58
2023/01/12 02:27:32;;;;;;;14.63;4.13;;;;;;;9.58;100.00;100558.88;2607831;36;20045;-57
2023/01/12 02:30:37;;;;;;;15.05;4.03;;;;;;;9.71;100.00;100553.25;2609554;36;20590;-57
2023/01/12 02:33:28;;;;;;;10.52;3.17;;;;;;;9.64;100.00;100563.69;2608627;36;20562;-56
2023/01/12 02:36:02;;;;;;;16.88;4.03;;;;;;;9.71;100.00;100542.50;2609286;36;20416;-58
2023/01/12 02:38:38;;;;;;;11.95;3.67;;;;;;;9.74;100.00;100542.22;2609212;36;20426;-58
2023/01/12 02:42:39;;;;;;;11.32;3.35;;;;;;;9.73;100.00;100538.69;2608075;36;20038;-58
2023/01/12 02:44:12;;;;;;;9.38;3.58;;;;;;;9.77;100.00;100526.66;2610457;36;20046;-58
2023/01/12 02:46:43;;;;;;;13.82;3.78;;;;;;;9.70;100.00;100513.91;2609710;36;20443;-58
2023/01/12 02:49:19;;;;;;;11.73;3.33;;;;;;;9.76;100.00;100524.97;2609614;36;20434;-58
2023/01/12 02:51:53;;;;;;;11.95;2.97;;;;;;;9.70;100.00;100514.78;2609170;36;20428;-58
2023/01/12 02:54:25;;;;;;;12.02;3.22;;;;;;;9.69;100.00;100507.69;2608718;32;20038;-58
2023/01/12 02:56:56;;;;;;;7.70;3.00;;;;;;;9.68;100.00;100502.47;2610222;31;20493;-57
2023/01/12 02:59:28;;;;;;;10.13;3.58;;;;;;;9.67;100.00;100490.84;2610067;36;20041;-58
2023/01/12 03:02:02;;;;;;;9.00;2.70;;;;;;;9.63;100.00;100486.78;2610126;36;20043;-58
2023/01/12 03:04:34;;;;;;;8.45;2.80;;;;;;;9.71;100.00;100478.00;2610077;31;20039;-60
2023/01/12 03:07:31;;;;;;;15.77;3.20;;;;;;;9.79;100.00;100476.31;2607929;36;20053;-59
2023/01/12 03:10:10;;;;;;;11.27;2.88;;;;;;;9.71;100.00;100472.63;2609535;36;20034;-58
2023/01/12 03:12:40;;;;;;;12.35;2.60;;;;;;;9.80;100.00;100461.03;2610459;36;20038;-59
2023/01/12 03:15:13;;;;;;;10.50;2.60;;;;;;;9.80;100.00;100455.66;2608951;36;20057;-58
2023/01/12 03:17:47;;;;;;;12.63;2.70;;;;;;;9.86;100.00;100451.56;2610166;36;20051;-58
2023/01/12 03:20:22;;;;;;;15.30;2.88;;;;;;;9.62;100.00;100447.44;2609030;36;20442;-53
2023/01/12 03:22:53;;;;;;;7.03;2.10;;;;;;;9.59;100.00;100453.09;2608877;36;20046;-57
2023/01/12 03:25:23;;;;;;;10.50;2.63;;;;;;;9.78;100.00;100442.34;2610103;36;20042;-57
2023/01/12 03:27:56;;;;;;;8.63;2.40;;;;;;;9.74;100.00;100438.25;2609181;31;20038;-57
2023/01/12 03:30:29;;;;;;;9.50;2.63;;;;;;;9.54;100.00;100425.78;2609692;36;20050;-56
2023/01/12 03:32:57;;;;;;;11.98;2.67;;;;;;;9.56;100.00;100418.44;2607581;36;20038;-58
2023/01/12 03:35:32;;;;;;;5.63;2.03;;;;;;;9.49;100.00;100420.00;2609657;36;20065;-57
2023/01/12 03:38:06;;;;;;;4.53;2.00;;;;;;;9.42;100.00;100425.06;2609739;36;20692;-57
2023/01/12 03:40:39;;;;;;;14.52;2.40;;;;;;;9.46;100.00;100411.22;2608869;36;20040;-55
2023/01/12 03:43:14;;;;;;;9.00;2.17;;;;;;;9.62;100.00;100409.81;2608760;36;20045;-54
2023/01/12 03:45:49;;;;;;;8.63;2.25;;;;;;;9.56;100.00;100400.47;2609630;36;20045;-57
2023/01/12 03:48:23;;;;;;;11.02;2.72;;;;;;;9.36;100.00;100382.66;2610358;36;20039;-56
2023/01/12 03:50:58;;;;;;;9.63;2.70;;;;;;;9.33;100.00;100378.41;2611840;36;20059;-57
2023/01/12 03:53:27;;;;;;;5.13;2.35;;;;;;;9.47;100.00;100361.88;2611691;36;20050;-53
2023/01/12 03:55:58;;;;;;;7.68;2.65;;;;;;;9.43;100.00;100357.78;2610988;36;20035;-57
2023/01/12 03:58:27;;;;;;;9.98;3.40;;;;;;;9.34;100.00;100342.50;2611110;36;20034;-54
2023/01/12 04:00:55;;;;;;;10.52;3.08;;;;;;;9.39;100.00;100328.66;2611115;36;20038;-58
2023/01/12 04:03:24;;;;;;;10.40;2.95;;;;;;;9.32;100.00;100328.38;2610803;36;20037;-57
2023/01/12 04:05:55;;;;;;;9.85;3.35;;;;;;;9.30;100.00;100330.34;2609786;36;20026;-55
2023/01/12 04:08:24;;;;;;;7.82;3.05;;;;;;;9.33;100.00;100316.63;2611623;36;20050;-55
2023/01/12 04:10:52;;;;;;;11.00;3.42;;;;;;;9.27;100.00;100298.41;2610219;36;20041;-53
2023/01/12 04:13:18;;;;;;;6.18;2.85;;;;;;;9.34;100.00;100291.47;2610390;36;20025;-54
2023/01/12 04:15:48;;;;;;;5.75;2.83;;;;;;;9.35;100.00;100263.66;2611483;36;20743;-57
2023/01/12 04:18:16;;;;;;;6.47;3.13;;;;;;;9.25;100.00;100250.22;2611410;31;20034;-56
2023/01/12 04:20:45;;;;;;;9.57;2.97;;;;;;;9.19;100.00;100226.63;2610642;36;20039;-55
2023/01/12 04:23:13;;;;;;;6.55;2.63;;;;;;;9.12;100.00;100226.34;2612183;36;20042;-56
2023/01/12 04:25:41;;;;;;;8.05;3.00;;;;;;;9.18;100.00;100222.25;2609701;36;20041;-57
2023/01/12 04:28:10;;;;;;;8.95;2.90;;;;;;;9.17;100.00;100206.28;2610395;36;20038;-57
2023/01/12 04:30:38;;;;;;;6.72;2.75;;;;;;;9.13;100.00;100211.09;2610965;36;20038;-55
2023/01/12 04:33:10;;;;;;;9.20;2.55;;;;;;;9.26;100.00;100187.47;2610644;36;20045;-54
2023/01/12 04:35:38;;;;;;;7.28;2.38;;;;;;;9.17;100.00;100182.13;2610546;36;20038;-56
2023/01/12 04:38:07;;;;;;;7.32;2.45;;;;;;;9.05;100.00;100171.53;2610325;36;20065;-58
2023/01/12 04:40:38;;;;;;;9.88;2.70;;;;;;;9.06;100.00;100151.75;2609721;36;20038;-58
2023/01/12 04:43:08;;;;;;;4.47;2.08;;;;;;;9.09;100.00;100161.34;2612275;36;20034;-56
2023/01/12 04:45:39;;;;;;;8.05;2.00;;;;;;;9.28;100.00;100145.19;2610212;36;20030;-58
2023/01/12 04:48:09;;;;;;;4.97;2.08;;;;;;;9.18;100.00;100133.63;2610863;36;20061;-58
2023/01/12 04:50:38;;;;;;;7.70;2.00;;;;;;;9.16;100.00;100132.94;2611193;36;20452;-56
2023/01/12 04:53:08;;;;;;;9.63;2.30;;;;;;;9.20;100.00;100147.78;2610372;36;21620;-58
2023/01/12 04:55:42;;;;;;;5.05;2.10;;;;;;;9.09;100.00;100127.28;2611092;36;20042;-56
2023/01/12 04:58:11;;;;;;;5.97;1.95;;;;;;;9.24;100.00;100132.22;2611274;31;20058;-57
2023/01/12 05:00:40;;;;;;;6.18;2.53;;;;;;;9.19;100.00;100135.34;2609840;36;20559;-56
2023/01/12 05:03:08;;;;;;;9.68;2.10;;;;;;;9.23;100.00;100115.28;2610884;36;20046;-58
2023/01/12 05:05:37;;;;;;;5.78;2.55;;;;;;;9.26;100.00;100114.09;2609914;36;20042;-57
2023/01/12 05:10:54;;;;;;;4.80;2.00;;;;;;;9.31;100.00;100085.00;2610984;36;20026;-53
2023/01/12 05:13:23;;;;;;;6.22;2.55;;;;;;;9.39;100.00;100101.22;2610129;31;21281;-57
2023/01/12 05:15:51;;;;;;;6.55;1.77;;;;;;;9.41;100.00;100099.22;2610631;36;20034;-58
2023/01/12 05:18:20;;;;;;;4.90;1.98;;;;;;;9.40;100.00;100104.75;2609132;36;20022;-58
2023/01/12 05:20:48;;;;;;;5.53;1.93;;;;;;;9.45;100.00;100106.00;2610979;36;20027;-58
2023/01/12 05:23:16;;;;;;;6.32;1.90;;;;;;;9.37;100.00;100084.41;2610677;36;20034;-55
2023/01/12 05:25:45;;;;;;;5.63;1.90;;;;;;;9.45;100.00;100103.31;2611011;31;20595;-57
2023/01/12 05:28:16;;;;;;;6.60;2.03;;;;;;;9.48;100.00;100104.84;2610895;36;20061;-58
2023/01/12 05:30:44;;;;;;;5.07;1.65;;;;;;;9.61;100.00;100097.31;2610554;36;20129;-58
2023/01/12 05:33:14;;;;;;;4.80;1.90;;;;;;;9.60;100.00;100114.41;2610223;36;20034;-59
2023/01/12 05:35:43;;;;;;;5.03;1.67;;;;;;;9.74;100.00;100110.38;2610470;36;20103;-55
2023/01/12 05:38:11;;;;;;;7.13;1.90;;;;;;;9.76;100.00;100104.84;2610337;36;20042;-57
2023/01/12 05:40:42;;;;;;;5.47;1.92;;;;;;;9.78;100.00;100097.50;2610865;36;20041;-56
2023/01/12 05:45:57;;;;;;;6.00;2.05;;;;;;;9.76;100.00;100110.22;2609674;36;20122;-57
2023/01/12 05:48:25;;;;;;;3.67;1.77;;;;;;;9.78;100.00;100114.47;2611008;36;20034;-59
2023/01/12 05:50:54;;;;;;;7.32;1.95;;;;;;;9.83;100.00;100122.09;2610045;36;20034;-57
2023/01/12 05:53:22;;;;;;;3.33;1.53;;;;;;;9.76;100.00;100116.47;2609408;36;20544;-57
2023/01/12 05:55:50;;;;;;;4.47;1.70;;;;;;;9.70;100.00;100116.22;2610290;36;20137;-59
2023/01/12 05:58:21;;;;;;;4.57;2.20;;;;;;;9.72;100.00;100115.06;2610253;36;20030;-58
2023/01/12 06:00:52;;;;;;;4.80;1.92;;;;;;;9.74;100.00;100101.50;2611417;36;21305;-56
2023/01/12 06:03:20;;;;;;;4.50;2.33;;;;;;;9.75;100.00;100113.94;2608677;36;20038;-57
2023/01/12 06:05:57;;;;;;;4.55;1.85;;;;;;;9.82;100.00;100117.72;2610572;36;20030;-58
2023/01/12 06:08:25;;;;;;;5.20;1.95;;;;;;;9.81;100.00;100108.78;2609452;36;20049;-58
2023/01/12 06:10:54;;;;;;;4.05;1.75;;;;;;;9.84;100.00;100120.25;2608810;36;20035;-58
2023/01/12 06:16:08;;;;;;;6.53;1.73;;;;;;;9.80;100.00;100112.50;2608627;36;20053;-59
2023/01/12 06:18:37;;;;;;;6.38;1.70;;;;;;;9.73;100.00;100121.28;2607713;36;20039;-58
2023/01/12 06:21:06;;;;;;;3.65;1.90;;;;;;;9.77;100.00;100107.41;2610664;31;20066;-58
2023/01/12 06:23:35;;;;;;;6.63;1.83;;;;;;;9.76;100.00;100110.22;2609463;31;20045;-58
2023/01/12 06:26:04;;;;;;;4.32;1.40;;;;;;;9.67;100.00;100128.09;2609405;31;20041;-57
2023/01/12 06:28:36;;;;;;;4.55;1.88;;;;;;;9.66;100.00;100110.31;2611456;31;20034;-57
2023/01/12 06:31:07;;;;;;;2.80;1.30;;;;;;;9.74;100.00;100123.81;2610023;36;20039;-58
2023/01/12 06:33:36;;;;;;;4.50;1.42;;;;;;;9.75;100.00;100135.44;2609756;36;20038;-57
2023/01/12 06:36:05;;;;;;;2.10;1.30;;;;;;;9.80;100.00;100128.63;2608733;36;20635;-57
2023/01/12 06:38:36;;;;;;;;;;;;;;;9.81;100.00;100135.66;2610908;31;20034;-58
2023/01/12 06:41:06;;;;;;;5.50;1.25;;;;;;;9.85;100.00;100147.00;2610474;36;19954;-57
2023/01/12 06:43:37;;;;;;;3.03;1.67;;;;;;;9.80;100.00;100154.63;2610178;36;20030;-60
2023/01/12 06:46:05;;;;;;;4.38;1.42;;;;;;;9.85;100.00;100135.38;2609502;36;20030;-58
2023/01/12 06:48:34;;;;;;;3.28;1.50;;;;;;;9.93;100.00;100151.59;2609577;36;20030;-58
2023/01/12 06:51:03;;;;;;;2.42;1.20;;;;;;;9.91;100.00;100142.81;2609323;36;20022;-58
2023/01/12 06:53:32;;;;;;;2.55;1.23;;;;;;;9.88;100.00;100143.13;2611016;36;20035;-57
2023/01/12 06:56:00;;;;;;;1.63;1.00;;;;;;;9.94;100.00;100143.41;2609731;36;20428;-58
2023/01/12 06:58:28;;;;;;;2.58;1.20;;;;;;;9.96;100.00;100137.88;2609666;31;20992;-57
2023/01/12 07:01:05;;;;;;;2.60;1.42;;;;;;;10.07;100.00;100142.19;2611790;36;20030;-59
2023/01/12 07:03:34;;;;;;;3.50;1.25;;;;;;;10.03;100.00;100144.34;2609855;36;20031;-59
2023/01/12 07:06:03;;;;;;;2.47;1.50;;;;;;;9.98;100.00;100130.47;2610373;31;20034;-58
2023/01/12 07:08:31;;;;;;;5.90;2.03;;;;;;;10.01;100.00;100151.69;2609529;31;20031;-57
2023/01/12 07:11:02;;;;;;;3.03;1.63;;;;;;;10.05;100.00;100145.03;2609995;36;20038;-57
2023/01/12 07:13:31;;;;;;;3.15;1.58;;;;;;;10.08;100.00;100147.41;2610558;36;20051;-58
2023/01/12 07:16:00;;;;;;;3.20;1.80;;;;;;;10.30;100.00;100153.38;2610872;36;20039;-58
2023/01/12 07:18:31;;;;;;;;;;;;;;;10.28;100.00;100158.06;2608969;36;20049;-57
2023/01/12 07:21:00;;;;;;;4.13;2.03;;;;;;;10.37;100.00;100153.66;2615562;36;19951;-56
2023/01/12 07:23:28;;;;;;;4.72;2.10;;;;;;;10.44;100.00;100152.88;2615808;36;20031;-58
2023/01/12 07:25:58;;;;;;;5.15;2.10;;;;;;;10.55;100.00;100159.03;2615830;36;20044;-57
2023/01/12 07:28:26;;;;;;;5.90;2.45;;;;;;;10.55;100.00;100159.88;2616680;31;20027;-58
2023/01/12 07:31:00;;;;;;;4.30;2.33;;;;;;;10.50;100.00;100165.72;2615711;36;20034;-57
2023/01/12 07:33:31;;;;;;;6.97;2.80;;;;;;;10.58;100.00;100156.03;2615985;36;20065;-58
2023/01/12 07:36:00;;;;;;;6.15;3.10;;;;;;;10.59;100.00;100172.03;2616191;36;20038;-58
2023/01/12 07:38:29;;;;;;;;;;;;;;;10.75;100.00;100168.66;2616664;36;20117;-58
2023/01/12 07:41:00;;;;;;;5.07;3.00;;;;;;;10.62;100.00;100170.88;2616169;36;19958;-60
2023/01/12 07:43:29;;;;;;;6.25;3.38;;;;;;;10.74;100.00;100169.66;2616810;36;20022;-58
2023/01/12 07:45:58;;;;;;;10.38;3.20;;;;;;;10.72;100.00;100171.66;2616464;36;20041;-58
2023/01/12 07:48:27;;;;;;;5.97;2.70;;;;;;;10.75;100.00;100187.50;2614839;36;20026;-58
2023/01/12 07:51:00;;;;;;;7.80;3.28;;;;;;;10.89;100.00;100178.00;2616332;36;20030;-59
2023/01/12 07:53:30;;;;;;;11.45;3.15;;;;;;;10.92;100.00;100182.25;2612496;36;20039;-59
2023/01/12 07:56:00;;;;;;;15.65;3.28;;;;;;;11.06;100.00;100168.25;2614743;36;20069;-58
2023/01/12 07:58:29;;;;;;;12.82;3.60;;;;;;;11.09;100.00;100176.00;2617103;36;20780;-57
2023/01/12 08:01:00;;;;;;;12.07;3.05;;;;;;;11.15;100.00;100194.22;2615616;36;20026;-57
2023/01/12 08:03:29;;;;;;;23.95;4.60;;;;;;;11.13;100.00;100185.47;2615656;36;20034;-59
2023/01/12 08:06:02;;;;;;;14.55;3.30;;;;;;;11.12;100.00;100189.16;2615717;36;20029;-58
2023/01/12 08:08:30;;;;;;;15.55;2.83;;;;;;;11.25;100.00;100187.88;2615705;31;20022;-59
2023/01/12 08:11:03;;;;;;;17.00;4.17;;;;;;;11.33;100.00;100191.50;2616079;36;20518;-59
2023/01/12 08:13:31;;;;;;;25.40;3.17;;;;;;;11.30;100.00;100207.13;2615974;31;20030;-58
2023/01/12 08:16:05;;;;;;;14.75;3.20;;;;;;;11.34;100.00;100189.66;2616412;36;20034;-57
2023/01/12 08:18:37;;;;;;;18.02;3.38;;;;;;;11.34;100.00;100205.81;2615955;36;20038;-57
2023/01/12 08:21:14;;;;;;;15.25;2.90;;;;;;;11.46;100.00;100207.25;2616362;36;20046;-59
2023/01/12 08:23:47;;;;;;;22.85;3.58;;;;;;;11.47;100.00;100208.94;2615458;36;20030;-58
2023/01/12 08:26:19;;;;;;;19.48;3.10;;;;;;;11.52;100.00;100222.78;2615738;36;20034;-58
2023/01/12 08:28:53;;;;;;;14.15;2.60;;;;;;;11.43;100.00;100207.56;2615599;36;20022;-58
2023/01/12 08:31:23;;;;;;;20.95;2.92;;;;;;;11.48;100.00;100221.41;2615922;36;20086;-59
2023/01/12 08:33:53;;;;;;;18.50;3.55;;;;;;;11.51;100.00;100210.34;2615357;36;20030;-58
2023/01/12 08:36:24;;;;;;;12.88;2.55;;;;;;;11.49;100.00;100228.50;2616513;31;20400;-59
2023/01/12 08:38:53;;;;;;;13.25;2.67;;;;;;;11.57;100.00;100230.38;2616116;36;20026;-58
2023/01/12 08:41:36;;;;;;;28.77;4.28;;;;;;;11.60;100.00;100229.22;2615764;36;20034;-59
2023/01/12 08:44:09;;;;;;;18.42;2.70;;;;;;;11.64;100.00;100241.41;2616315;36;20109;-58
2023/01/12 08:46:39;;;;;;;20.10;3.08;;;;;;;11.68;100.00;100242.78;2615809;36;20125;-58
2023/01/12 08:49:12;;;;;;;24.60;3.53;;;;;;;11.68;100.00;100249.00;2614585;36;20030;-58
2023/01/12 08:51:44;;;;;;;19.10;3.30;;;;;;;11.58;100.00;100232.91;2615032;31;20042;-59
2023/01/12 08:54:14;;;;;;;28.15;3.60;;;;;;;11.77;100.00;100247.22;2611621;31;20578;-58
2023/01/12 08:56:42;;;;;;;23.20;3.67;;;;;;;11.78;100.00;100239.94;2614701;36;20077;-59
2023/01/12 08:59:11;;;;;;;20.90;4.18;;;;;;;11.80;100.00;100246.06;2614876;36;20041;-58
2023/01/12 09:01:39;;;;;;;19.17;3.38;;;;;;;11.85;100.00;100244.56;2615720;36;20443;-58
2023/01/12 09:04:07;;;;;;;23.43;4.20;;;;;;;11.84;100.00;100247.44;2614256;36;20536;-59
2023/01/12 09:06:38;;;;;;;20.50;3.72;;;;;;;11.95;100.00;100259.81;2615869;36;20034;-57
2023/01/12 09:09:11;;;;;;;16.83;3.45;;;;;;;11.98;100.00;100251.41;2615715;36;20027;-58
2023/01/12 09:11:42;;;;;;;18.35;2.60;;;;;;;11.89;100.00;100248.63;2615629;36;20023;-59
2023/01/12 09:14:10;;;;;;;21.58;4.72;;;;;;;12.01;100.00;100253.78;2614077;31;20038;-59
2023/01/12 09:16:39;;;;;;;22.30;3.80;;;;;;;11.95;100.00;100259.81;2615018;36;20030;-58
2023/01/12 09:19:08;;;;;;;19.73;3.10;;;;;;;11.95;100.00;100266.03;2615761;36;20034;-58
2023/01/12 09:21:39;;;;;;;19.02;3.47;;;;;;;11.96;100.00;100288.50;2617115;31;20033;-58
2023/01/12 09:24:11;;;;;;;11.10;2.83;;;;;;;12.03;100.00;100273.38;2616441;31;20085;-60
2023/01/12 09:26:41;;;;;;;19.98;3.25;;;;;;;12.06;100.00;100278.44;2616183;36;20073;-60
2023/01/12 09:29:11;;;;;;;16.15;3.13;;;;;;;12.08;100.00;100271.84;2616326;36;20029;-60
2023/01/12 09:31:42;;;;;;;17.73;3.10;;;;;;;12.03;100.00;100284.16;2616011;36;20030;-59
2023/01/12 09:34:10;;;;;;;14.98;2.78;;;;;;;12.09;100.00;100297.00;2615685;36;20039;-60
2023/01/12 09:36:40;;;;;;;29.60;3.30;;;;;;;12.11;100.00;100291.44;2616634;36;20452;-60
2023/01/12 09:39:15;;;;;;;15.65;2.83;;;;;;;12.06;100.00;100283.81;2614903;31;20060;-59
2023/01/12 09:47:23;;;;;;;18.05;2.85;;;;;;;12.18;100.00;100290.63;2616192;36;20033;-59
2023/01/12 09:49:58;;;;;;;26.33;3.33;;;;;;;12.20;100.00;100304.78;2615140;36;20046;-59
2023/01/12 09:52:31;;;;;;;19.17;3.70;;;;;;;12.23;100.00;100307.19;2616007;31;20535;-60
2023/01/12 09:55:02;;;;;;;20.02;3.13;;;;;;;12.12;100.00;100304.75;2615451;31;20030;-58
2023/01/12 09:58:03;;;;;;;23.63;3.65;;;;;;;12.16;100.00;100324.16;2615704;36;20037;-58
2023/01/12 10:00:31;;;;;;;16.85;4.35;;;;;;;12.14;100.00;100324.31;2615314;36;20030;-59
2023/01/12 10:03:13;;;;;;;17.70;3.60;;;;;;;12.24;100.00;100319.66;2615589;36;20031;-59
2023/01/12 10:05:47;;;;;;;19.17;3.22;;;;;;;12.30;100.00;100317.34;2615674;36;20677;-59
2023/01/12 10:08:20;;;;;;;19.50;3.42;;;;;;;12.32;100.00;100331.50;2616245;36;20414;-59
2023/01/12 10:11:16;;;;;;;15.75;2.80;;;;;;;12.33;100.00;100322.41;2616039;36;20033;-59
2023/01/12 10:14:10;;;;;;;15.27;3.25;;;;;;;12.32;100.00;100323.41;2615767;36;20038;-59
2023/01/12 10:16:49;;;;;;;16.17;3.38;;;;;;;12.30;100.00;100339.75;2615519;36;20027;-59
2023/01/12 10:19:27;;;;;;;19.92;3.42;;;;;;;12.30;100.00;100349.72;2615197;36;20034;-59
2023/01/12 10:21:55;;;;;;;19.92;3.25;;;;;;;12.23;100.00;100338.72;2615982;36;20034;-59
2023/01/12 10:24:26;;;;;;;16.27;3.10;;;;;;;12.23;100.00;100344.97;2615297;31;20548;-59
2023/01/12 10:27:03;;;;;;;25.60;3.58;;;;;;;12.31;100.00;100346.84;2614684;36;20292;-59
2023/01/12 10:29:34;;;;;;;23.52;3.75;;;;;;;12.26;100.00;100344.66;2612997;36;20034;-59
2023/01/12 10:32:02;;;;;;;18.17;3.50;;;;;;;12.23;100.00;100336.88;2614830;36;20092;-59
2023/01/12 10:34:49;;;;;;;23.53;3.97;;;;;;;12.21;100.00;100344.25;2614868;36;20026;-58
2023/01/12 10:37:18;;;;;;;19.05;3.55;;;;;;;12.17;100.00;100331.25;2615455;36;20098;-58
2023/01/12 10:39:47;;;;;;;23.83;3.40;;;;;;;12.29;100.00;100338.06;2615044;36;20030;-59
2023/01/12 10:45:19;;;;;;;19.95;3.50;;;;;;;12.23;100.00;100349.50;2616260;31;20050;-59
2023/01/12 10:47:49;;;;;;;19.33;3.38;;;;;;;12.07;100.00;100350.22;2614638;36;20065;-58
2023/01/12 10:50:26;;;;;;;19.73;3.17;;;;;;;12.24;100.00;100362.00;2614858;36;20034;-57
2023/01/12 10:53:00;;;;;;;20.77;2.88;;;;;;;12.18;100.00;100360.78;2615737;36;20141;-59
2023/01/12 10:55:32;;;;;;;18.02;3.63;;;;;;;12.12;100.00;100364.09;2615523;36;20023;-58
2023/01/12 10:58:03;;;;;;;13.23;2.72;;;;;;;12.17;100.00;100358.22;2615335;36;20567;-59
2023/01/12 11:00:33;;;;;;;20.05;3.40;;;;;;;12.12;100.00;100355.16;2615503;31;20034;-58
2023/01/12 11:03:02;;;;;;;21.00;3.33;;;;;;;12.14;100.00;100348.59;2615124;36;20023;-59
2023/01/12 11:05:32;;;;;;;;;;;;;;;12.17;100.00;100355.53;2614700;36;20570;-58
2023/01/12 11:08:02;;;;;;;11.95;3.17;;;;;;;12.16;100.00;100362.78;2615781;36;20090;-59
2023/01/12 11:10:34;;;;;;;20.08;3.72;;;;;;;12.31;100.00;100346.84;2616426;31;20030;-59
2023/01/12 11:13:09;;;;;;;18.75;3.00;;;;;;;12.38;100.00;100344.34;2616432;36;20577;-58
2023/01/12 11:15:39;;;;;;;11.95;2.35;;;;;;;12.17;100.00;100340.19;2615616;36;20034;-59
2023/01/12 11:18:27;;;;;;;14.35;2.90;;;;;;;12.11;100.00;100350.78;2614936;36;20049;-58
2023/01/12 11:20:58;;;;;;;12.95;3.45;;;;;;;12.16;100.00;100356.53;2615456;36;20467;-58
2023/01/12 11:23:33;;;;;;;17.75;2.95;;;;;;;12.14;100.00;100350.47;2616466;36;20026;-59
2023/01/12 11:26:04;;;;;;;11.00;2.92;;;;;;;12.21;100.00;100344.25;2617152;31;20452;-58
2023/01/12 11:28:40;;;;;;;12.25;2.70;;;;;;;12.12;100.00;100347.06;2616561;31;20046;-59
2023/01/12 11:31:15;;;;;;;13.10;2.25;;;;;;;12.17;100.00;100334.78;2616427;31;20030;-58
2023/01/12 11:33:48;;;;;;;14.43;2.70;;;;;;;12.11;100.00;100348.09;2615868;36;20039;-58
2023/01/12 11:36:22;;;;;;;9.50;3.97;;;;;;;12.06;100.00;100349.41;2616597;36;20034;-58
2023/01/12 11:38:52;;;;;;;22.38;2.78;;;;;;;12.09;100.00;100346.38;2616658;31;20042;-59
2023/01/12 11:41:25;;;;;;;15.93;2.83;;;;;;;12.12;100.00;100352.44;2615993;36;20022;-59
2023/01/12 11:44:01;;;;;;;13.02;2.72;;;;;;;12.16;100.00;100335.81;2616368;36;20041;-57
2023/01/12 11:46:34;;;;;;;19.23;2.70;;;;;;;12.05;100.00;100342.31;2615911;36;20041;-57
2023/01/12 11:49:12;;;;;;;17.15;3.53;;;;;;;12.07;100.00;100334.91;2616290;36;20034;-59
2023/01/12 11:51:41;;;;;;;15.77;3.40;;;;;;;12.12;100.00;100337.13;2616548;36;20026;-58
2023/01/12 11:54:16;;;;;;;17.02;2.63;;;;;;;12.15;100.00;100327.88;2616751;36;20026;-58
2023/01/12 11:57:17;;;;;;;11.10;2.33;;;;;;;12.11;100.00;100324.63;2616628;36;20613;-58
2023/01/12 12:00:04;;;;;;;12.98;2.50;;;;;;;12.17;100.00;100333.94;2614575;36;20023;-57
2023/01/12 12:02:36;;;;;;;16.83;3.15;;;;;;;12.12;100.00;100326.34;2615631;36;20555;-58
2023/01/12 12:05:20;;;;;;;16.23;2.65;;;;;;;12.15;100.00;100326.03;2615468;36;20037;-59
2023/01/12 12:08:04;;;;;;;17.75;3.03;;;;;;;12.05;100.00;100325.28;2616506;31;20034;-58
2023/01/12 12:10:42;;;;;;;19.67;2.60;;;;;;;12.14;100.00;100318.09;2616039;31;20041;-58